PDT,Max TemperatureF,Mean TemperatureF,Min TemperatureF,Max Dew PointF,MeanDew PointF,Min DewpointF,Max Humidity, Mean Humidity, Min Humidity, Max Sea Level PressureIn, Mean Sea Level PressureIn, Min Sea Level PressureIn, Max VisibilityMiles, Mean VisibilityMiles, Min VisibilityMiles, Max Wind SpeedMPH, Mean Wind SpeedMPH, Max Gust SpeedMPH,PrecipitationIn, CloudCover, Events, WindDirDegrees
2013-4-1,62,54,46,46,38,34,87,56,34,30.13,30.04,29.97,10,10,10,39,18,51,0.00,0,,264
2013-4-2,71,61,51,43,38,32,62,47,23,30.11,30.06,30.00,10,10,6,31,21,40,0.00,0,,280
2013-4-3,78,62,46,43,34,23,71,36,13,30.14,30.08,30.03,10,10,10,16,7,18,0.00,0,,237
2013-4-4,73,65,57,46,40,32,67,43,25,30.08,30.04,30.00,10,10,10,29,13,40,0.00,0,,260
2013-4-5,68,62,55,46,41,32,67,51,35,30.05,30.00,29.93,10,10,7,50,21,61,0.00,0,,283
2013-4-6,66,60,53,41,38,28,58,46,32,30.06,29.97,29.87,10,10,6,48,35,63,0.00,0,,282
2013-4-7,73,63,53,41,38,32,62,44,22,30.01,29.90,29.78,10,10,10,43,24,56,0.00,0,,263
2013-4-8,57,50,42,41,33,28,76,55,41,29.83,29.67,29.49,10,8,2,55,33,75,0.00,1,,272
2013-4-9,66,54,42,34,24,10,62,35,14,30.09,29.94,29.84,10,10,10,26,16,32,0.00,0,,298
2013-4-10,75,58,41,28,17,9,36,20,9,30.18,30.09,30.00,10,10,10,32,10,44,0.00,0,,322
2013-4-11,78,68,59,41,35,25,48,32,19,30.02,29.86,29.75,10,10,10,43,23,48,0.00,0,,289
2013-4-12,80,66,51,45,36,27,58,36,14,29.92,29.85,29.80,10,10,10,24,12,30,0.00,0,,258
2013-4-13,77,68,59,43,35,23,51,31,16,29.88,29.80,29.72,10,10,10,37,21,53,0.00,0,,253
2013-4-14,71,64,57,43,37,28,55,38,27,29.79,29.74,29.71,10,10,10,47,22,58,0.00,0,,237
2013-4-15,62,55,46,39,34,27,71,48,26,29.81,29.77,29.70,10,10,7,36,19,47,0.00,2,,242
2013-4-16,55,46,37,28,24,18,65,42,24,29.99,29.89,29.75,10,10,10,36,25,52,0.00,2,,270
2013-4-17,62,50,39,23,18,10,45,29,16,30.21,30.10,30.00,10,10,10,23,11,29,0.00,0,,301
2013-4-18,66,54,41,19,8,1,28,16,9,30.31,30.25,30.21,10,10,9,15,8,20,0.00,0,,30
2013-4-19,77,60,44,27,17,7,29,20,8,30.26,30.15,29.97,10,10,9,37,9,47,0.00,0,,286
2013-4-20,82,72,62,39,28,18,35,23,10,30.09,30.02,29.97,10,10,10,37,20,47,0.00,0,,279
2013-4-21,86,70,55,36,29,23,36,23,11,30.07,30.00,29.94,10,10,10,30,8,40,0.00,0,,278
2013-4-22,86,74,62,32,28,16,25,19,12,29.99,29.91,29.81,10,10,9,36,14,47,0.00,0,,275
2013-4-23,77,68,59,39,24,14,37,20,10,30.05,29.94,29.81,10,10,9,34,18,50,0.00,0,,42
2013-4-24,78,66,55,39,23,10,45,20,8,29.96,29.88,29.82,10,10,10,20,12,29,0.00,0,,58
2013-4-25,80,64,48,41,37,23,66,39,12,30.03,29.95,29.87,10,10,8,36,11,53,0.00,0,,287
2013-4-26,84,72,59,45,34,14,48,30,9,30.18,30.12,30.03,10,10,10,33,16,45,0.00,0,,299
2013-4-27,89,74,59,41,34,16,42,25,7,30.21,30.13,30.04,10,10,10,31,14,37,0.00,0,,283
2013-4-28,91,80,68,45,37,25,37,24,9,30.04,29.97,29.89,10,10,10,30,21,41,0.00,0,,289
2013-4-29,89,78,68,41,35,27,31,22,14,29.91,29.85,29.75,10,10,10,31,19,43,0.00,0,,288
2013-4-30,84,76,68,45,38,32,38,27,15,29.78,29.75,29.71,10,10,8,36,22,54,0.00,0,,275